sensor_id;sensor_type;location;lat;lon;timestamp;pressure;altitude;pressure_sealevel;temperature;humidity
19508;BME280;40157;42.566;27.526;2023-01-29T00:00:34;101255.00;;;4.29;73.96
19508;BME280;40157;42.566;27.526;2023-01-29T00:02:35;101260.34;;;4.32;73.95
19508;BME280;40157;42.566;27.526;2023-01-29T00:04:36;101215.81;;;4.06;73.95
19508;BME280;40157;42.566;27.526;2023-01-29T00:06:36;101231.53;;;4.09;74.41
19508;BME280;40157;42.566;27.526;2023-01-29T00:08:38;101256.47;;;4.23;74.37
19508;BME280;40157;42.566;27.526;2023-01-29T00:10:38;101236.00;;;4.12;74.10
19508;BME280;40157;42.566;27.526;2023-01-29T00:12:38;101241.34;;;4.15;74.06
19508;BME280;40157;42.566;27.526;2023-01-29T00:14:39;101254.38;;;4.16;74.14
19508;BME280;40157;42.566;27.526;2023-01-29T00:16:39;101248.06;;;4.11;73.78
19508;BME280;40157;42.566;27.526;2023-01-29T00:18:40;101237.16;;;4.00;74.16
19508;BME280;40157;42.566;27.526;2023-01-29T00:20:42;101257.91;;;4.00;73.77
19508;BME280;40157;42.566;27.526;2023-01-29T00:22:43;101257.81;;;3.99;74.02
19508;BME280;40157;42.566;27.526;2023-01-29T00:24:43;101255.91;;;3.95;74.39
19508;BME280;40157;42.566;27.526;2023-01-29T00:26:43;101244.78;;;3.97;73.87
19508;BME280;40157;42.566;27.526;2023-01-29T00:28:44;101253.59;;;4.01;74.17
19508;BME280;40157;42.566;27.526;2023-01-29T00:30:44;101239.66;;;3.99;74.19
19508;BME280;40157;42.566;27.526;2023-01-29T00:32:45;101260.91;;;4.08;73.65
19508;BME280;40157;42.566;27.526;2023-01-29T00:34:45;101265.78;;;4.02;73.59
19508;BME280;40157;42.566;27.526;2023-01-29T00:36:46;101248.84;;;3.92;73.58
19508;BME280;40157;42.566;27.526;2023-01-29T00:38:46;101257.75;;;3.97;73.81
19508;BME280;40157;42.566;27.526;2023-01-29T00:40:53;101268.88;;;3.95;74.34
19508;BME280;40157;42.566;27.526;2023-01-29T00:43:12;101268.88;;;3.95;74.30
19508;BME280;40157;42.566;27.526;2023-01-29T00:45:31;101255.91;;;3.95;74.13
19508;BME280;40157;42.566;27.526;2023-01-29T00:47:32;101276.31;;;4.05;74.20
19508;BME280;40157;42.566;27.526;2023-01-29T00:49:32;101277.34;;;4.08;74.14
19508;BME280;40157;42.566;27.526;2023-01-29T00:51:33;101280.75;;;4.07;74.16
19508;BME280;40157;42.566;27.526;2023-01-29T00:53:34;101252.38;;;3.94;73.75
19508;BME280;40157;42.566;27.526;2023-01-29T00:55:34;101286.84;;;4.08;73.67
19508;BME280;40157;42.566;27.526;2023-01-29T00:57:35;101285.06;;;4.07;73.17
19508;BME280;40157;42.566;27.526;2023-01-29T00:59:36;101270.63;;;3.96;73.71
19508;BME280;40157;42.566;27.526;2023-01-29T01:01:36;101274.19;;;3.98;73.80
19508;BME280;40157;42.566;27.526;2023-01-29T01:03:55;101288.38;;;4.04;73.60
19508;BME280;40157;42.566;27.526;2023-01-29T01:06:03;101296.38;;;4.09;73.41
19508;BME280;40157;42.566;27.526;2023-01-29T01:08:04;101295.69;;;4.12;73.39
19508;BME280;40157;42.566;27.526;2023-01-29T01:10:27;101289.38;;;4.06;73.03
19508;BME280;40157;42.566;27.526;2023-01-29T01:12:29;101301.25;;;4.19;72.88
19508;BME280;40157;42.566;27.526;2023-01-29T01:14:30;101262.22;;;4.00;72.91
19508;BME280;40157;42.566;27.526;2023-01-29T01:16:30;101296.63;;;4.14;72.70
19508;BME280;40157;42.566;27.526;2023-01-29T01:18:30;101312.63;;;4.21;72.38
19508;BME280;40157;42.566;27.526;2023-01-29T01:20:33;101303.66;;;4.16;72.18
19508;BME280;40157;42.566;27.526;2023-01-29T01:22:33;101281.94;;;4.14;72.09
19508;BME280;40157;42.566;27.526;2023-01-29T01:24:34;101293.28;;;4.16;72.44
19508;BME280;40157;42.566;27.526;2023-01-29T01:26:35;101309.59;;;4.30;72.02
19508;BME280;40157;42.566;27.526;2023-01-29T01:28:35;101305.13;;;4.28;71.55
19508;BME280;40157;42.566;27.526;2023-01-29T01:30:36;101306.91;;;4.29;71.97
19508;BME280;40157;42.566;27.526;2023-01-29T01:32:37;101317.75;;;4.38;71.82
19508;BME280;40157;42.566;27.526;2023-01-29T01:34:38;101322.22;;;4.40;71.50
19508;BME280;40157;42.566;27.526;2023-01-29T01:36:38;101317.75;;;4.38;71.70
19508;BME280;40157;42.566;27.526;2023-01-29T01:38:38;101301.72;;;4.29;71.71
19508;BME280;40157;42.566;27.526;2023-01-29T01:40:44;101280.19;;;4.13;71.19
19508;BME280;40157;42.566;27.526;2023-01-29T01:42:54;101329.13;;;4.40;71.25
19508;BME280;40157;42.566;27.526;2023-01-29T01:44:58;101333.31;;;4.38;71.45
19508;BME280;40157;42.566;27.526;2023-01-29T01:47:00;101311.22;;;4.28;71.49
19508;BME280;40157;42.566;27.526;2023-01-29T01:49:10;101332.19;;;4.33;71.17
19508;BME280;40157;42.566;27.526;2023-01-29T01:51:15;101320.06;;;4.15;71.16
19508;BME280;40157;42.566;27.526;2023-01-29T01:53:25;101313.00;;;4.13;70.88
19508;BME280;40157;42.566;27.526;2023-01-29T01:55:29;101310.50;;;3.98;71.79
19508;BME280;40157;42.566;27.526;2023-01-29T01:57:33;101335.22;;;4.07;72.13
19508;BME280;40157;42.566;27.526;2023-01-29T01:59:35;101335.16;;;4.06;72.04
19508;BME280;40157;42.566;27.526;2023-01-29T02:01:40;101309.47;;;3.94;72.54
19508;BME280;40157;42.566;27.526;2023-01-29T02:03:50;101320.00;;;3.97;72.60
19508;BME280;40157;42.566;27.526;2023-01-29T02:06:12;101324.13;;;3.94;72.96
19508;BME280;40157;42.566;27.526;2023-01-29T02:08:44;101310.59;;;3.83;73.00
19508;BME280;40157;42.566;27.526;2023-01-29T02:11:05;101330.88;;;3.90;72.88
19508;BME280;40157;42.566;27.526;2023-01-29T02:13:06;101301.28;;;3.70;73.31
19508;BME280;40157;42.566;27.526;2023-01-29T02:15:07;101328.44;;;3.77;73.67
19508;BME280;40157;42.566;27.526;2023-01-29T02:17:17;101316.00;;;3.71;73.39
19508;BME280;40157;42.566;27.526;2023-01-29T02:28:54;101338.31;;;3.67;73.11
19508;BME280;40157;42.566;27.526;2023-01-29T02:31:28;101345.44;;;3.72;73.13
19508;BME280;40157;42.566;27.526;2023-01-29T02:35:42;101355.75;;;3.70;72.23
19508;BME280;40157;42.566;27.526;2023-01-29T02:40:16;101354.75;;;3.68;72.33
19508;BME280;40157;42.566;27.526;2023-01-29T02:42:32;101361.09;;;3.73;71.92
19508;BME280;40157;42.566;27.526;2023-01-29T02:44:41;101354.81;;;3.69;71.60
19508;BME280;40157;42.566;27.526;2023-01-29T02:49:34;101359.56;;;3.77;71.46
19508;BME280;40157;42.566;27.526;2023-01-29T02:51:43;101357.84;;;3.77;71.50
19508;BME280;40157;42.566;27.526;2023-01-29T02:55:57;101348.75;;;3.69;71.21
19508;BME280;40157;42.566;27.526;2023-01-29T02:58:12;101357.94;;;3.79;71.36
19508;BME280;40157;42.566;27.526;2023-01-29T03:00:19;101362.31;;;3.80;71.10
19508;BME280;40157;42.566;27.526;2023-01-29T03:02:27;101375.84;;;3.91;70.36
19508;BME280;40157;42.566;27.526;2023-01-29T03:04:32;101382.16;;;3.96;70.60
19508;BME280;40157;42.566;27.526;2023-01-29T03:06:41;101376.91;;;3.94;70.51
19508;BME280;40157;42.566;27.526;2023-01-29T03:08:56;101391.25;;;4.04;69.82
19508;BME280;40157;42.566;27.526;2023-01-29T03:11:03;101398.53;;;4.11;69.43
19508;BME280;40157;42.566;27.526;2023-01-29T03:13:44;101392.47;;;4.11;69.20
19508;BME280;40157;42.566;27.526;2023-01-29T03:15:48;101384.44;;;4.06;68.73
19508;BME280;40157;42.566;27.526;2023-01-29T03:18:31;101390.75;;;4.11;68.91
19508;BME280;40157;42.566;27.526;2023-01-29T03:20:37;101401.31;;;4.14;68.20
19508;BME280;40157;42.566;27.526;2023-01-29T03:22:43;101393.84;;;4.04;67.95
19508;BME280;40157;42.566;27.526;2023-01-29T03:24:52;101411.22;;;4.05;67.83
19508;BME280;40157;42.566;27.526;2023-01-29T03:27:13;101403.09;;;3.99;67.97
19508;BME280;40157;42.566;27.526;2023-01-29T03:29:35;101417.22;;;4.04;68.36
19508;BME280;40157;42.566;27.526;2023-01-29T03:31:56;101404.22;;;4.04;68.22
19508;BME280;40157;42.566;27.526;2023-01-29T03:34:12;101386.47;;;3.95;67.73
19508;BME280;40157;42.566;27.526;2023-01-29T03:36:22;101403.66;;;4.10;67.32
19508;BME280;40157;42.566;27.526;2023-01-29T03:38:26;101397.75;;;4.12;67.45
19508;BME280;40157;42.566;27.526;2023-01-29T03:40:34;101398.53;;;4.11;67.49
19508;BME280;40157;42.566;27.526;2023-01-29T03:43:00;101413.81;;;4.21;67.31
19508;BME280;40157;42.566;27.526;2023-01-29T03:45:45;101380.63;;;3.99;67.32
19508;BME280;40157;42.566;27.526;2023-01-29T03:50:11;101408.94;;;4.28;66.94
19508;BME280;40157;42.566;27.526;2023-01-29T03:52:18;101409.97;;;4.31;66.59
19508;BME280;40157;42.566;27.526;2023-01-29T03:57:31;101401.16;;;4.28;66.07
19508;BME280;40157;42.566;27.526;2023-01-29T04:01:41;101410.56;;;4.25;65.70
19508;BME280;40157;42.566;27.526;2023-01-29T04:03:53;101411.22;;;4.21;66.33
19508;BME280;40157;42.566;27.526;2023-01-29T04:06:07;101403.03;;;4.14;65.57
19508;BME280;40157;42.566;27.526;2023-01-29T04:08:16;101401.16;;;4.11;66.17
19508;BME280;40157;42.566;27.526;2023-01-29T04:10:23;101404.88;;;4.16;65.69
19508;BME280;40157;42.566;27.526;2023-01-29T04:12:29;101410.41;;;4.22;65.47
19508;BME280;40157;42.566;27.526;2023-01-29T04:14:32;101414.88;;;4.25;65.49
19508;BME280;40157;42.566;27.526;2023-01-29T04:16:39;101397.59;;;4.09;65.85
19508;BME280;40157;42.566;27.526;2023-01-29T04:18:44;101411.28;;;4.23;65.77
19508;BME280;40157;42.566;27.526;2023-01-29T04:20:45;101417.84;;;4.33;65.57
19508;BME280;40157;42.566;27.526;2023-01-29T04:22:49;101418.03;;;4.36;65.55
19508;BME280;40157;42.566;27.526;2023-01-29T04:24:50;101428.56;;;4.39;65.56
19508;BME280;40157;42.566;27.526;2023-01-29T04:31:12;101436.19;;;4.36;65.03
19508;BME280;40157;42.566;27.526;2023-01-29T04:37:34;101429.69;;;4.28;64.91
19508;BME280;40157;42.566;27.526;2023-01-29T04:39:59;101438.44;;;4.30;64.95
19508;BME280;40157;42.566;27.526;2023-01-29T04:51:20;101424.69;;;4.31;65.12
19508;BME280;40157;42.566;27.526;2023-01-29T04:54:11;101432.38;;;4.29;65.46
19508;BME280;40157;42.566;27.526;2023-01-29T04:58:31;101441.38;;;4.36;65.22
19508;BME280;40157;42.566;27.526;2023-01-29T05:00:37;101445.94;;;4.40;65.95
19508;BME280;40157;42.566;27.526;2023-01-29T05:02:40;101455.50;;;4.41;65.21
19508;BME280;40157;42.566;27.526;2023-01-29T05:04:44;101424.34;;;4.24;65.24
19508;BME280;40157;42.566;27.526;2023-01-29T05:06:47;101445.44;;;4.31;65.22
19508;BME280;40157;42.566;27.526;2023-01-29T05:08:48;101429.41;;;4.21;65.13
19508;BME280;40157;42.566;27.526;2023-01-29T05:10:51;101435.72;;;4.26;64.93
19508;BME280;40157;42.566;27.526;2023-01-29T05:12:59;101454.69;;;4.25;65.05
19508;BME280;40157;42.566;27.526;2023-01-29T05:15:02;101437.97;;;4.20;65.19
19508;BME280;40157;42.566;27.526;2023-01-29T05:17:09;101432.28;;;4.11;65.54
19508;BME280;40157;42.566;27.526;2023-01-29T05:19:13;101438.16;;;4.23;65.33
19508;BME280;40157;42.566;27.526;2023-01-29T05:21:15;101451.28;;;4.26;65.00
19508;BME280;40157;42.566;27.526;2023-01-29T05:23:17;101380.38;;;3.78;65.01
19508;BME280;40157;42.566;27.526;2023-01-29T05:25:24;101470.00;;;4.37;65.16
19508;BME280;40157;42.566;27.526;2023-01-29T05:27:33;101452.97;;;4.26;65.07
19508;BME280;40157;42.566;27.526;2023-01-29T05:29:53;101476.00;;;4.36;64.60
19508;BME280;40157;42.566;27.526;2023-01-29T05:31:54;101437.00;;;4.18;64.86
19508;BME280;40157;42.566;27.526;2023-01-29T05:33:55;101475.59;;;4.12;64.81
19508;BME280;40157;42.566;27.526;2023-01-29T05:35:58;101471.84;;;4.07;64.95
19508;BME280;40157;42.566;27.526;2023-01-29T05:37:58;101464.34;;;4.12;65.24
19508;BME280;40157;42.566;27.526;2023-01-29T05:39:59;101457.88;;;3.88;65.20
19508;BME280;40157;42.566;27.526;2023-01-29T05:41:59;101483.34;;;3.96;65.45
19508;BME280;40157;42.566;27.526;2023-01-29T05:43:59;101429.22;;;3.70;65.68
19508;BME280;40157;42.566;27.526;2023-01-29T05:46:00;101488.56;;;4.12;65.10
19508;BME280;40157;42.566;27.526;2023-01-29T05:48:00;101466.31;;;4.01;65.10
19508;BME280;40157;42.566;27.526;2023-01-29T05:50:01;101481.44;;;4.08;64.92
19508;BME280;40157;42.566;27.526;2023-01-29T05:52:01;101447.38;;;4.02;64.52
19508;BME280;40157;42.566;27.526;2023-01-29T05:54:02;101486.97;;;4.31;67.46
19508;BME280;40157;42.566;27.526;2023-01-29T05:56:03;101497.13;;;4.42;66.95
19508;BME280;40157;42.566;27.526;2023-01-29T05:58:04;101498.03;;;4.43;66.12
19508;BME280;40157;42.566;27.526;2023-01-29T06:00:06;101484.72;;;4.53;65.10
19508;BME280;40157;42.566;27.526;2023-01-29T06:02:07;101496.53;;;4.64;64.98
19508;BME280;40157;42.566;27.526;2023-01-29T06:04:08;101505.78;;;4.76;64.35
19508;BME280;40157;42.566;27.526;2023-01-29T06:06:08;101489.00;;;4.69;63.86
19508;BME280;40157;42.566;27.526;2023-01-29T06:08:09;101512.28;;;4.84;64.80
19508;BME280;40157;42.566;27.526;2023-01-29T06:10:14;101485.59;;;4.87;66.56
19508;BME280;40157;42.566;27.526;2023-01-29T06:12:15;101509.66;;;5.00;64.57
19508;BME280;40157;42.566;27.526;2023-01-29T06:14:16;101511.03;;;5.10;64.56
19508;BME280;40157;42.566;27.526;2023-01-29T06:16:16;101498.28;;;5.15;64.41
19508;BME280;40157;42.566;27.526;2023-01-29T06:18:16;101493.53;;;5.24;63.36
19508;BME280;40157;42.566;27.526;2023-01-29T06:20:17;101496.53;;;5.32;63.31
19508;BME280;40157;42.566;27.526;2023-01-29T06:22:17;101512.44;;;5.56;63.50
19508;BME280;40157;42.566;27.526;2023-01-29T06:24:18;101511.09;;;5.64;62.65
19508;BME280;40157;42.566;27.526;2023-01-29T06:26:18;101524.66;;;5.75;62.54
19508;BME280;40157;42.566;27.526;2023-01-29T06:28:19;101525.69;;;5.79;61.12
19508;BME280;40157;42.566;27.526;2023-01-29T06:30:19;101505.25;;;5.68;60.15
19508;BME280;40157;42.566;27.526;2023-01-29T06:32:20;101529.25;;;5.81;60.08
19508;BME280;40157;42.566;27.526;2023-01-29T06:34:21;101491.03;;;5.44;60.98
19508;BME280;40157;42.566;27.526;2023-01-29T06:36:21;101518.84;;;5.63;61.44
19508;BME280;40157;42.566;27.526;2023-01-29T06:38:22;101498.03;;;5.45;61.80
19508;BME280;40157;42.566;27.526;2023-01-29T06:40:23;101518.25;;;5.50;61.86
19508;BME280;40157;42.566;27.526;2023-01-29T06:42:23;101529.53;;;5.51;61.98
19508;BME280;40157;42.566;27.526;2023-01-29T06:44:26;101511.53;;;5.37;61.95
19508;BME280;40157;42.566;27.526;2023-01-29T06:46:27;101531.97;;;5.48;62.27
19508;BME280;40157;42.566;27.526;2023-01-29T06:48:27;101524.03;;;5.45;62.04
19508;BME280;40157;42.566;27.526;2023-01-29T06:50:28;101528.50;;;5.47;63.45
19508;BME280;40157;42.566;27.526;2023-01-29T06:52:28;101528.13;;;5.40;62.70
19508;BME280;40157;42.566;27.526;2023-01-29T06:54:29;101526.91;;;5.33;62.71
19508;BME280;40157;42.566;27.526;2023-01-29T06:56:29;101515.25;;;5.25;62.96
19508;BME280;40157;42.566;27.526;2023-01-29T06:58:30;101529.94;;;5.24;63.33
19508;BME280;40157;42.566;27.526;2023-01-29T07:00:30;101521.03;;;5.03;64.27
19508;BME280;40157;42.566;27.526;2023-01-29T07:02:31;101513.03;;;4.98;64.53
19508;BME280;40157;42.566;27.526;2023-01-29T07:04:31;101493.31;;;4.85;64.61
19508;BME280;40157;42.566;27.526;2023-01-29T07:06:32;101521.53;;;4.95;65.30
19508;BME280;40157;42.566;27.526;2023-01-29T07:08:37;101532.72;;;4.94;65.97
19508;BME280;40157;42.566;27.526;2023-01-29T07:10:38;101536.34;;;4.80;66.09
19508;BME280;40157;42.566;27.526;2023-01-29T07:12:38;101524.31;;;4.82;65.75
19508;BME280;40157;42.566;27.526;2023-01-29T07:14:39;101521.78;;;4.84;65.83
19508;BME280;40157;42.566;27.526;2023-01-29T07:16:39;101513.84;;;4.80;65.95
19508;BME280;40157;42.566;27.526;2023-01-29T07:18:40;101531.78;;;4.76;66.49
19508;BME280;40157;42.566;27.526;2023-01-29T07:20:41;101538.09;;;4.81;66.75
19508;BME280;40157;42.566;27.526;2023-01-29T07:22:41;101524.81;;;4.75;67.25
19508;BME280;40157;42.566;27.526;2023-01-29T07:24:42;101535.41;;;4.79;67.98
19508;BME280;40157;42.566;27.526;2023-01-29T07:26:42;101532.69;;;4.76;67.68
19508;BME280;40157;42.566;27.526;2023-01-29T07:28:43;101547.59;;;4.80;67.94
19508;BME280;40157;42.566;27.526;2023-01-29T07:30:43;101521.25;;;4.56;67.87
19508;BME280;40157;42.566;27.526;2023-01-29T07:32:44;101531.38;;;4.68;67.67
19508;BME280;40157;42.566;27.526;2023-01-29T07:34:44;101542.81;;;4.72;67.96
19508;BME280;40157;42.566;27.526;2023-01-29T07:36:45;101537.47;;;4.69;67.88
19508;BME280;40157;42.566;27.526;2023-01-29T07:38:48;101552.97;;;4.84;67.87
19508;BME280;40157;42.566;27.526;2023-01-29T07:40:51;101529.34;;;4.79;68.34
19508;BME280;40157;42.566;27.526;2023-01-29T07:43:00;101510.81;;;4.73;67.81
19508;BME280;40157;42.566;27.526;2023-01-29T07:45:00;101554.91;;;5.04;67.76
19508;BME280;40157;42.566;27.526;2023-01-29T07:47:01;101535.50;;;4.97;67.71
19508;BME280;40157;42.566;27.526;2023-01-29T07:49:01;101537.13;;;4.95;67.69
19508;BME280;40157;42.566;27.526;2023-01-29T07:51:02;101533.84;;;4.99;67.09
19508;BME280;40157;42.566;27.526;2023-01-29T07:53:02;101542.94;;;5.08;67.10
19508;BME280;40157;42.566;27.526;2023-01-29T07:55:03;101550.09;;;5.12;67.03
19508;BME280;40157;42.566;27.526;2023-01-29T07:57:03;101554.63;;;5.16;66.98
19508;BME280;40157;42.566;27.526;2023-01-29T07:59:04;101551.41;;;5.20;66.57
19508;BME280;40157;42.566;27.526;2023-01-29T08:01:05;101558.75;;;5.29;66.30
19508;BME280;40157;42.566;27.526;2023-01-29T08:03:12;101566.66;;;5.30;66.36
19508;BME280;40157;42.566;27.526;2023-01-29T08:05:12;101573.78;;;5.34;65.80
19508;BME280;40157;42.566;27.526;2023-01-29T08:07:13;101575.50;;;5.34;65.93
19508;BME280;40157;42.566;27.526;2023-01-29T08:09:14;101572.97;;;5.35;66.00
19508;BME280;40157;42.566;27.526;2023-01-29T08:11:14;101561.59;;;5.33;65.81
19508;BME280;40157;42.566;27.526;2023-01-29T08:13:15;101500.75;;;4.95;65.98
19508;BME280;40157;42.566;27.526;2023-01-29T08:15:15;101579.28;;;5.41;66.12
19508;BME280;40157;42.566;27.526;2023-01-29T08:17:15;101584.50;;;5.41;66.23
19508;BME280;40157;42.566;27.526;2023-01-29T08:19:16;101550.56;;;5.21;66.08
19508;BME280;40157;42.566;27.526;2023-01-29T08:21:16;101576.63;;;5.39;66.45
19508;BME280;40157;42.566;27.526;2023-01-29T08:23:17;101577.38;;;5.36;66.37
19508;BME280;40157;42.566;27.526;2023-01-29T08:25:17;101581.72;;;5.37;66.19
19508;BME280;40157;42.566;27.526;2023-01-29T08:27:18;101593.41;;;5.46;66.42
19508;BME280;40157;42.566;27.526;2023-01-29T08:29:18;101592.63;;;5.47;66.84
19508;BME280;40157;42.566;27.526;2023-01-29T08:31:19;101560.25;;;5.24;66.85
19508;BME280;40157;42.566;27.526;2023-01-29T08:33:22;101571.59;;;5.26;66.80
19508;BME280;40157;42.566;27.526;2023-01-29T08:35:22;101592.38;;;5.42;66.86
19508;BME280;40157;42.566;27.526;2023-01-29T08:37:23;101589.84;;;5.44;67.03
19508;BME280;40157;42.566;27.526;2023-01-29T08:39:24;101589.69;;;5.41;67.32
19508;BME280;40157;42.566;27.526;2023-01-29T08:41:24;101587.09;;;5.41;67.69
19508;BME280;40157;42.566;27.526;2023-01-29T08:43:24;101585.25;;;5.38;67.30
19508;BME280;40157;42.566;27.526;2023-01-29T08:45:25;101598.78;;;5.49;67.83
19508;BME280;40157;42.566;27.526;2023-01-29T08:47:26;101585.47;;;5.43;67.83
19508;BME280;40157;42.566;27.526;2023-01-29T08:49:27;101577.53;;;5.40;67.88
19508;BME280;40157;42.566;27.526;2023-01-29T08:51:28;101585.81;;;5.32;68.14
19508;BME280;40157;42.566;27.526;2023-01-29T08:53:29;101581.13;;;5.25;67.94
19508;BME280;40157;42.566;27.526;2023-01-29T08:55:30;101590.56;;;5.23;68.55
19508;BME280;40157;42.566;27.526;2023-01-29T08:57:30;101574.38;;;5.12;68.67
19508;BME280;40157;42.566;27.526;2023-01-29T08:59:30;101587.78;;;5.20;68.96
19508;BME280;40157;42.566;27.526;2023-01-29T09:01:31;101565.22;;;5.03;69.58
19508;BME280;40157;42.566;27.526;2023-01-29T09:03:31;101588.25;;;5.13;70.52
19508;BME280;40157;42.566;27.526;2023-01-29T09:05:33;101596.31;;;5.17;70.74
19508;BME280;40157;42.566;27.526;2023-01-29T09:07:34;101598.81;;;5.16;70.62
19508;BME280;40157;42.566;27.526;2023-01-29T09:09:34;101599.88;;;5.19;70.74
19508;BME280;40157;42.566;27.526;2023-01-29T09:11:35;101593.63;;;5.16;71.08
19508;BME280;40157;42.566;27.526;2023-01-29T09:13:35;101597.50;;;5.24;71.04
19508;BME280;40157;42.566;27.526;2023-01-29T09:15:36;101593.69;;;5.17;71.80
19508;BME280;40157;42.566;27.526;2023-01-29T09:17:36;101591.53;;;5.09;71.53
19508;BME280;40157;42.566;27.526;2023-01-29T09:19:37;101582.50;;;5.02;72.22
19508;BME280;40157;42.566;27.526;2023-01-29T09:21:37;101596.72;;;5.09;72.97
19508;BME280;40157;42.566;27.526;2023-01-29T09:23:38;101585.84;;;4.99;73.86
19508;BME280;40157;42.566;27.526;2023-01-29T09:25:38;101595.84;;;5.08;74.11
19508;BME280;40157;42.566;27.526;2023-01-29T09:27:38;101571.56;;;4.91;74.39
19508;BME280;40157;42.566;27.526;2023-01-29T09:29:39;101584.06;;;4.98;74.59
19508;BME280;40157;42.566;27.526;2023-01-29T09:31:39;101572.53;;;4.93;74.70
19508;BME280;40157;42.566;27.526;2023-01-29T09:33:40;101528.72;;;4.67;75.00
19508;BME280;40157;42.566;27.526;2023-01-29T09:35:41;101580.34;;;4.93;74.94
19508;BME280;40157;42.566;27.526;2023-01-29T09:37:42;101567.00;;;4.87;75.27
19508;BME280;40157;42.566;27.526;2023-01-29T09:39:46;101578.78;;;4.97;75.41
19508;BME280;40157;42.566;27.526;2023-01-29T09:46:52;101571.88;;;4.97;75.14
19508;BME280;40157;42.566;27.526;2023-01-29T09:49:06;101562.41;;;4.98;75.08
19508;BME280;40157;42.566;27.526;2023-01-29T09:51:18;101546.47;;;4.92;75.47
19508;BME280;40157;42.566;27.526;2023-01-29T09:53:41;101558.63;;;4.93;75.08
19508;BME280;40157;42.566;27.526;2023-01-29T09:55:57;101561.31;;;4.94;74.44
19508;BME280;40157;42.566;27.526;2023-01-29T09:58:04;101558.00;;;4.80;74.62
19508;BME280;40157;42.566;27.526;2023-01-29T10:00:14;101562.31;;;4.80;75.40
19508;BME280;40157;42.566;27.526;2023-01-29T10:12:56;101549.94;;;4.59;76.62
19508;BME280;40157;42.566;27.526;2023-01-29T10:15:27;101551.66;;;4.59;76.67
19508;BME280;40157;42.566;27.526;2023-01-29T10:20:05;101550.28;;;4.66;76.84
19508;BME280;40157;42.566;27.526;2023-01-29T10:24:59;101544.91;;;4.62;76.41
19508;BME280;40157;42.566;27.526;2023-01-29T10:27:02;101536.06;;;4.59;75.68
19508;BME280;40157;42.566;27.526;2023-01-29T10:29:05;101535.19;;;4.58;76.21
19508;BME280;40157;42.566;27.526;2023-01-29T10:33:22;101548.56;;;4.66;76.74
19508;BME280;40157;42.566;27.526;2023-01-29T10:35:30;101537.03;;;4.61;77.49
19508;BME280;40157;42.566;27.526;2023-01-29T10:37:42;101533.56;;;4.60;76.98
19508;BME280;40157;42.566;27.526;2023-01-29T10:39:43;101519.59;;;4.58;77.23
19508;BME280;40157;42.566;27.526;2023-01-29T10:44:26;101534.44;;;4.61;76.74
19508;BME280;40157;42.566;27.526;2023-01-29T10:53:36;101523.50;;;4.50;75.29
19508;BME280;40157;42.566;27.526;2023-01-29T10:55:50;101513.91;;;4.49;75.90
19508;BME280;40157;42.566;27.526;2023-01-29T11:00:21;101515.03;;;4.54;75.37
19508;BME280;40157;42.566;27.526;2023-01-29T11:02:23;101499.97;;;4.47;75.29
19508;BME280;40157;42.566;27.526;2023-01-29T11:04:25;101499.09;;;4.47;75.34
19508;BME280;40157;42.566;27.526;2023-01-29T11:06:30;101504.50;;;4.51;75.12
19508;BME280;40157;42.566;27.526;2023-01-29T11:08:39;101509.47;;;4.47;75.12
19508;BME280;40157;42.566;27.526;2023-01-29T11:12:57;101475.28;;;4.39;74.67
19508;BME280;40157;42.566;27.526;2023-01-29T11:15:15;101491.03;;;4.42;74.79
19508;BME280;40157;42.566;27.526;2023-01-29T11:17:18;101509.63;;;4.50;75.14
19508;BME280;40157;42.566;27.526;2023-01-29T11:19:36;101509.06;;;4.55;75.25
19508;BME280;40157;42.566;27.526;2023-01-29T11:21:51;101502.06;;;4.54;74.72
19508;BME280;40157;42.566;27.526;2023-01-29T11:26:10;101488.28;;;4.55;74.52
19508;BME280;40157;42.566;27.526;2023-01-29T11:28:11;101502.16;;;4.72;74.54
19508;BME280;40157;42.566;27.526;2023-01-29T11:30:20;101483.88;;;4.71;73.81
19508;BME280;40157;42.566;27.526;2023-01-29T11:34:24;101494.94;;;4.83;73.06
19508;BME280;40157;42.566;27.526;2023-01-29T11:36:38;101485.84;;;4.75;72.66
19508;BME280;40157;42.566;27.526;2023-01-29T11:38:38;101487.13;;;4.83;72.17
19508;BME280;40157;42.566;27.526;2023-01-29T11:40:39;101485.59;;;4.87;72.03
19508;BME280;40157;42.566;27.526;2023-01-29T11:42:40;101477.72;;;4.85;71.84
19508;BME280;40157;42.566;27.526;2023-01-29T11:44:41;101405.03;;;4.36;70.85
19508;BME280;40157;42.566;27.526;2023-01-29T11:46:42;101473.16;;;4.81;70.91
19508;BME280;40157;42.566;27.526;2023-01-29T11:48:48;101480.75;;;4.94;71.31
19508;BME280;40157;42.566;27.526;2023-01-29T11:50:52;101483.22;;;4.91;70.78
19508;BME280;40157;42.566;27.526;2023-01-29T11:52:55;101490.03;;;4.89;70.31
19508;BME280;40157;42.566;27.526;2023-01-29T11:54:58;101474.59;;;4.92;70.27
19508;BME280;40157;42.566;27.526;2023-01-29T11:57:01;101486.97;;;4.96;70.26
19508;BME280;40157;42.566;27.526;2023-01-29T11:59:03;101484.66;;;5.03;70.64
19508;BME280;40157;42.566;27.526;2023-01-29T12:01:04;101461.19;;;5.01;70.41
19508;BME280;40157;42.566;27.526;2023-01-29T12:03:30;101470.06;;;5.05;70.29
19508;BME280;40157;42.566;27.526;2023-01-29T12:05:32;101459.97;;;4.94;70.29
19508;BME280;40157;42.566;27.526;2023-01-29T12:07:33;101468.25;;;5.04;69.79
19508;BME280;40157;42.566;27.526;2023-01-29T12:09:34;101467.13;;;4.98;69.54
19508;BME280;40157;42.566;27.526;2023-01-29T12:11:35;101433.38;;;4.82;69.86
19508;BME280;40157;42.566;27.526;2023-01-29T12:13:36;101444.03;;;4.87;69.64
19508;BME280;40157;42.566;27.526;2023-01-29T12:15:39;101485.28;;;5.15;69.95
19508;BME280;40157;42.566;27.526;2023-01-29T12:17:42;101448.09;;;4.99;69.17
19508;BME280;40157;42.566;27.526;2023-01-29T12:19:49;101478.69;;;5.22;69.13